sensor_id;sensor_type;location;lat;lon;timestamp;temperature;humidity
6843;DHT22;3460;52.028;8.916;2023-04-25T00:01:55;7.10;99.90
6843;DHT22;3460;52.028;8.916;2023-04-25T00:04:22;7.20;99.90
6843;DHT22;3460;52.028;8.916;2023-04-25T00:06:49;7.20;99.90
6843;DHT22;3460;52.028;8.916;2023-04-25T00:09:15;7.20;99.90
6843;DHT22;3460;52.028;8.916;2023-04-25T00:11:42;7.20;99.90
6843;DHT22;3460;52.028;8.916;2023-04-25T00:14:09;7.20;99.90
6843;DHT22;3460;52.028;8.916;2023-04-25T00:16:37;7.20;99.90
6843;DHT22;3460;52.028;8.916;2023-04-25T00:19:04;7.10;99.90
6843;DHT22;3460;52.028;8.916;2023-04-25T00:21:31;7.10;99.90
6843;DHT22;3460;52.028;8.916;2023-04-25T00:23:58;7.10;99.90
6843;DHT22;3460;52.028;8.916;2023-04-25T00:26:25;7.10;99.90
6843;DHT22;3460;52.028;8.916;2023-04-25T00:28:52;7.10;99.90
6843;DHT22;3460;52.028;8.916;2023-04-25T00:31:19;7.20;99.90
6843;DHT22;3460;52.028;8.916;2023-04-25T00:33:47;7.10;99.90
6843;DHT22;3460;52.028;8.916;2023-04-25T00:36:14;7.20;99.90
6843;DHT22;3460;52.028;8.916;2023-04-25T00:38:42;7.20;99.90
6843;DHT22;3460;52.028;8.916;2023-04-25T00:41:09;7.10;99.90
6843;DHT22;3460;52.028;8.916;2023-04-25T00:43:36;7.10;99.90
6843;DHT22;3460;52.028;8.916;2023-04-25T00:46:03;7.00;99.90
6843;DHT22;3460;52.028;8.916;2023-04-25T00:48:30;7.00;99.90
6843;DHT22;3460;52.028;8.916;2023-04-25T00:50:59;7.00;99.90
6843;DHT22;3460;52.028;8.916;2023-04-25T00:53:27;7.10;99.90
6843;DHT22;3460;52.028;8.916;2023-04-25T00:55:54;7.10;99.90
6843;DHT22;3460;52.028;8.916;2023-04-25T00:58:22;7.10;99.90
6843;DHT22;3460;52.028;8.916;2023-04-25T01:00:50;7.10;99.90
6843;DHT22;3460;52.028;8.916;2023-04-25T01:03:18;7.00;99.90
6843;DHT22;3460;52.028;8.916;2023-04-25T01:05:46;7.00;99.90
6843;DHT22;3460;52.028;8.916;2023-04-25T01:08:15;7.00;99.90
6843;DHT22;3460;52.028;8.916;2023-04-25T01:10:42;6.90;99.90
6843;DHT22;3460;52.028;8.916;2023-04-25T01:13:09;7.00;99.90
6843;DHT22;3460;52.028;8.916;2023-04-25T01:15:35;6.90;99.90
6843;DHT22;3460;52.028;8.916;2023-04-25T01:18:03;6.90;99.90
6843;DHT22;3460;52.028;8.916;2023-04-25T01:20:32;6.80;99.90
6843;DHT22;3460;52.028;8.916;2023-04-25T01:23:01;6.80;99.90
6843;DHT22;3460;52.028;8.916;2023-04-25T01:25:29;6.90;99.90
6843;DHT22;3460;52.028;8.916;2023-04-25T01:27:56;6.80;99.90
6843;DHT22;3460;52.028;8.916;2023-04-25T01:30:24;6.80;99.90
6843;DHT22;3460;52.028;8.916;2023-04-25T01:32:53;6.90;99.90
6843;DHT22;3460;52.028;8.916;2023-04-25T01:35:20;6.80;99.90
6843;DHT22;3460;52.028;8.916;2023-04-25T01:37:50;6.80;99.90
6843;DHT22;3460;52.028;8.916;2023-04-25T01:40:20;6.80;99.90
6843;DHT22;3460;52.028;8.916;2023-04-25T01:42:48;6.70;99.90
6843;DHT22;3460;52.028;8.916;2023-04-25T01:45:15;6.70;99.90
6843;DHT22;3460;52.028;8.916;2023-04-25T01:47:42;6.70;99.90
6843;DHT22;3460;52.028;8.916;2023-04-25T01:50:12;6.70;99.90
6843;DHT22;3460;52.028;8.916;2023-04-25T01:52:39;6.70;99.90
6843;DHT22;3460;52.028;8.916;2023-04-25T01:55:07;6.60;99.90
6843;DHT22;3460;52.028;8.916;2023-04-25T01:57:35;6.70;99.90
6843;DHT22;3460;52.028;8.916;2023-04-25T02:00:04;6.60;99.90
6843;DHT22;3460;52.028;8.916;2023-04-25T02:02:31;6.60;99.90
6843;DHT22;3460;52.028;8.916;2023-04-25T02:04:58;6.60;99.90
6843;DHT22;3460;52.028;8.916;2023-04-25T02:07:26;6.60;99.90
6843;DHT22;3460;52.028;8.916;2023-04-25T02:09:53;6.70;99.90
6843;DHT22;3460;52.028;8.916;2023-04-25T02:12:19;6.70;99.90
6843;DHT22;3460;52.028;8.916;2023-04-25T02:14:47;6.60;99.90
6843;DHT22;3460;52.028;8.916;2023-04-25T02:17:14;6.60;99.90
6843;DHT22;3460;52.028;8.916;2023-04-25T02:19:41;6.50;99.90
6843;DHT22;3460;52.028;8.916;2023-04-25T02:22:08;6.60;99.90
6843;DHT22;3460;52.028;8.916;2023-04-25T02:24:35;6.60;99.90
6843;DHT22;3460;52.028;8.916;2023-04-25T02:27:02;6.60;99.90
6843;DHT22;3460;52.028;8.916;2023-04-25T02:29:29;6.60;99.90
6843;DHT22;3460;52.028;8.916;2023-04-25T02:31:57;6.50;99.90
6843;DHT22;3460;52.028;8.916;2023-04-25T02:34:24;6.50;99.90
6843;DHT22;3460;52.028;8.916;2023-04-25T02:36:51;6.50;99.90
6843;DHT22;3460;52.028;8.916;2023-04-25T02:39:18;6.50;99.90
6843;DHT22;3460;52.028;8.916;2023-04-25T02:41:45;6.50;99.90
6843;DHT22;3460;52.028;8.916;2023-04-25T02:44:11;6.50;99.90
6843;DHT22;3460;52.028;8.916;2023-04-25T02:46:38;6.40;99.90
6843;DHT22;3460;52.028;8.916;2023-04-25T02:49:06;6.50;99.90
6843;DHT22;3460;52.028;8.916;2023-04-25T02:51:33;6.40;99.90
6843;DHT22;3460;52.028;8.916;2023-04-25T02:54:00;6.40;99.90
6843;DHT22;3460;52.028;8.916;2023-04-25T02:56:28;6.40;99.90
6843;DHT22;3460;52.028;8.916;2023-04-25T02:58:55;6.40;99.90
6843;DHT22;3460;52.028;8.916;2023-04-25T03:01:22;6.40;99.90
6843;DHT22;3460;52.028;8.916;2023-04-25T03:03:48;6.40;99.90
6843;DHT22;3460;52.028;8.916;2023-04-25T03:06:17;6.30;99.90
6843;DHT22;3460;52.028;8.916;2023-04-25T03:08:43;6.30;99.90
6843;DHT22;3460;52.028;8.916;2023-04-25T03:11:10;6.20;99.90
6843;DHT22;3460;52.028;8.916;2023-04-25T03:13:37;6.10;99.90
6843;DHT22;3460;52.028;8.916;2023-04-25T03:16:04;6.10;99.90
6843;DHT22;3460;52.028;8.916;2023-04-25T03:18:31;6.10;99.90
6843;DHT22;3460;52.028;8.916;2023-04-25T03:20:58;6.10;99.90
6843;DHT22;3460;52.028;8.916;2023-04-25T03:23:26;6.10;99.90
6843;DHT22;3460;52.028;8.916;2023-04-25T03:25:53;6.10;99.90
6843;DHT22;3460;52.028;8.916;2023-04-25T03:28:20;6.00;99.90
6843;DHT22;3460;52.028;8.916;2023-04-25T03:30:47;6.00;99.90
6843;DHT22;3460;52.028;8.916;2023-04-25T03:33:14;6.00;99.90
6843;DHT22;3460;52.028;8.916;2023-04-25T03:35:40;6.00;99.90
6843;DHT22;3460;52.028;8.916;2023-04-25T03:38:08;6.00;99.90
6843;DHT22;3460;52.028;8.916;2023-04-25T03:40:36;6.00;99.90
6843;DHT22;3460;52.028;8.916;2023-04-25T03:43:03;6.00;99.90
6843;DHT22;3460;52.028;8.916;2023-04-25T03:45:29;6.00;99.90
6843;DHT22;3460;52.028;8.916;2023-04-25T03:47:56;6.00;99.90
6843;DHT22;3460;52.028;8.916;2023-04-25T03:50:23;6.00;99.90
6843;DHT22;3460;52.028;8.916;2023-04-25T03:52:50;6.00;99.90
6843;DHT22;3460;52.028;8.916;2023-04-25T03:55:17;6.00;99.90
6843;DHT22;3460;52.028;8.916;2023-04-25T03:57:45;6.00;99.90
6843;DHT22;3460;52.028;8.916;2023-04-25T04:00:13;6.00;99.90
6843;DHT22;3460;52.028;8.916;2023-04-25T04:02:40;6.00;99.90
6843;DHT22;3460;52.028;8.916;2023-04-25T04:05:07;6.00;99.90
6843;DHT22;3460;52.028;8.916;2023-04-25T04:07:34;6.00;99.90
6843;DHT22;3460;52.028;8.916;2023-04-25T04:10:05;6.00;99.90
6843;DHT22;3460;52.028;8.916;2023-04-25T04:12:32;6.00;99.90
6843;DHT22;3460;52.028;8.916;2023-04-25T04:15:01;6.00;99.90
6843;DHT22;3460;52.028;8.916;2023-04-25T04:17:28;6.10;99.90
6843;DHT22;3460;52.028;8.916;2023-04-25T04:19:55;6.10;99.90
6843;DHT22;3460;52.028;8.916;2023-04-25T04:22:22;6.10;99.90
6843;DHT22;3460;52.028;8.916;2023-04-25T04:24:49;6.10;99.90
6843;DHT22;3460;52.028;8.916;2023-04-25T04:27:17;6.10;99.90
6843;DHT22;3460;52.028;8.916;2023-04-25T04:29:44;6.10;99.90
6843;DHT22;3460;52.028;8.916;2023-04-25T04:32:13;6.10;99.90
6843;DHT22;3460;52.028;8.916;2023-04-25T04:34:40;6.10;99.90
6843;DHT22;3460;52.028;8.916;2023-04-25T04:37:07;6.10;99.90
6843;DHT22;3460;52.028;8.916;2023-04-25T04:39:35;6.20;99.90
6843;DHT22;3460;52.028;8.916;2023-04-25T04:42:02;6.20;99.90
6843;DHT22;3460;52.028;8.916;2023-04-25T04:44:30;6.20;99.90
6843;DHT22;3460;52.028;8.916;2023-04-25T04:46:58;6.30;99.90
6843;DHT22;3460;52.028;8.916;2023-04-25T04:49:26;6.30;99.90
6843;DHT22;3460;52.028;8.916;2023-04-25T04:51:53;6.20;99.90
6843;DHT22;3460;52.028;8.916;2023-04-25T04:54:20;6.20;99.90
6843;DHT22;3460;52.028;8.916;2023-04-25T04:56:47;6.20;99.90
6843;DHT22;3460;52.028;8.916;2023-04-25T04:59:14;6.10;99.90
6843;DHT22;3460;52.028;8.916;2023-04-25T05:01:41;6.00;99.90
6843;DHT22;3460;52.028;8.916;2023-04-25T05:04:07;5.90;99.90
6843;DHT22;3460;52.028;8.916;2023-04-25T05:06:36;5.90;99.90
6843;DHT22;3460;52.028;8.916;2023-04-25T05:09:02;5.90;99.90
6843;DHT22;3460;52.028;8.916;2023-04-25T05:11:29;5.90;99.90
6843;DHT22;3460;52.028;8.916;2023-04-25T05:13:56;6.00;99.90
6843;DHT22;3460;52.028;8.916;2023-04-25T05:16:23;6.00;99.90
6843;DHT22;3460;52.028;8.916;2023-04-25T05:18:50;6.10;99.90
6843;DHT22;3460;52.028;8.916;2023-04-25T05:21:17;6.10;99.90
6843;DHT22;3460;52.028;8.916;2023-04-25T05:23:45;6.20;99.90
6843;DHT22;3460;52.028;8.916;2023-04-25T05:26:11;6.20;99.90
6843;DHT22;3460;52.028;8.916;2023-04-25T05:28:40;6.30;99.90
6843;DHT22;3460;52.028;8.916;2023-04-25T05:31:07;6.30;99.90
6843;DHT22;3460;52.028;8.916;2023-04-25T05:33:35;6.30;99.90
6843;DHT22;3460;52.028;8.916;2023-04-25T05:36:02;6.40;99.90
6843;DHT22;3460;52.028;8.916;2023-04-25T05:38:29;6.30;99.90
6843;DHT22;3460;52.028;8.916;2023-04-25T05:40:57;6.30;99.90
6843;DHT22;3460;52.028;8.916;2023-04-25T05:43:24;6.30;99.90
6843;DHT22;3460;52.028;8.916;2023-04-25T05:45:51;6.30;99.90
6843;DHT22;3460;52.028;8.916;2023-04-25T05:48:18;6.30;99.90
6843;DHT22;3460;52.028;8.916;2023-04-25T05:50:45;6.30;99.90
6843;DHT22;3460;52.028;8.916;2023-04-25T05:53:11;6.30;99.90
6843;DHT22;3460;52.028;8.916;2023-04-25T05:55:38;6.40;99.90
6843;DHT22;3460;52.028;8.916;2023-04-25T05:58:06;6.50;99.90
6843;DHT22;3460;52.028;8.916;2023-04-25T06:00:33;6.50;99.90
6843;DHT22;3460;52.028;8.916;2023-04-25T06:03:00;6.50;99.90
6843;DHT22;3460;52.028;8.916;2023-04-25T06:05:27;6.50;99.90
6843;DHT22;3460;52.028;8.916;2023-04-25T06:07:54;6.70;99.90
6843;DHT22;3460;52.028;8.916;2023-04-25T06:10:21;6.70;99.90
6843;DHT22;3460;52.028;8.916;2023-04-25T06:12:48;6.70;99.90
6843;DHT22;3460;52.028;8.916;2023-04-25T06:15:16;6.80;99.90
6843;DHT22;3460;52.028;8.916;2023-04-25T06:17:43;6.70;99.90
6843;DHT22;3460;52.028;8.916;2023-04-25T06:20:11;6.80;99.90
6843;DHT22;3460;52.028;8.916;2023-04-25T06:22:38;6.80;99.90
6843;DHT22;3460;52.028;8.916;2023-04-25T06:25:05;6.80;99.90
6843;DHT22;3460;52.028;8.916;2023-04-25T06:27:32;6.80;99.90
6843;DHT22;3460;52.028;8.916;2023-04-25T06:29:59;6.90;99.90
6843;DHT22;3460;52.028;8.916;2023-04-25T06:32:27;6.90;99.90
6843;DHT22;3460;52.028;8.916;2023-04-25T06:34:55;6.90;99.90
6843;DHT22;3460;52.028;8.916;2023-04-25T06:37:22;7.00;99.90
6843;DHT22;3460;52.028;8.916;2023-04-25T06:39:49;7.10;99.90
6843;DHT22;3460;52.028;8.916;2023-04-25T06:42:15;7.10;99.90
6843;DHT22;3460;52.028;8.916;2023-04-25T06:44:42;7.10;99.90
6843;DHT22;3460;52.028;8.916;2023-04-25T06:47:09;7.10;99.90
6843;DHT22;3460;52.028;8.916;2023-04-25T06:49:37;7.10;99.90
6843;DHT22;3460;52.028;8.916;2023-04-25T06:52:04;7.10;99.90
6843;DHT22;3460;52.028;8.916;2023-04-25T06:54:31;7.10;99.90
6843;DHT22;3460;52.028;8.916;2023-04-25T06:56:58;7.00;99.90
6843;DHT22;3460;52.028;8.916;2023-04-25T06:59:26;6.90;99.90
6843;DHT22;3460;52.028;8.916;2023-04-25T07:01:53;6.90;99.90
6843;DHT22;3460;52.028;8.916;2023-04-25T07:04:19;6.90;99.90
6843;DHT22;3460;52.028;8.916;2023-04-25T07:06:48;7.00;99.90
6843;DHT22;3460;52.028;8.916;2023-04-25T07:09:15;7.00;99.90
6843;DHT22;3460;52.028;8.916;2023-04-25T07:11:42;7.10;99.90
6843;DHT22;3460;52.028;8.916;2023-04-25T07:14:08;7.10;99.90
6843;DHT22;3460;52.028;8.916;2023-04-25T07:16:35;7.20;99.90
6843;DHT22;3460;52.028;8.916;2023-04-25T07:19:02;7.30;99.90
6843;DHT22;3460;52.028;8.916;2023-04-25T07:21:29;7.30;99.90
6843;DHT22;3460;52.028;8.916;2023-04-25T07:23:58;7.30;99.90
6843;DHT22;3460;52.028;8.916;2023-04-25T07:26:25;7.40;99.90
6843;DHT22;3460;52.028;8.916;2023-04-25T07:28:52;7.50;99.90
6843;DHT22;3460;52.028;8.916;2023-04-25T07:31:20;7.50;99.90
6843;DHT22;3460;52.028;8.916;2023-04-25T07:33:47;7.60;99.90
6843;DHT22;3460;52.028;8.916;2023-04-25T07:36:14;7.50;99.90
6843;DHT22;3460;52.028;8.916;2023-04-25T07:38:41;7.60;99.90
6843;DHT22;3460;52.028;8.916;2023-04-25T07:41:09;7.50;99.90
6843;DHT22;3460;52.028;8.916;2023-04-25T07:43:36;7.50;99.90
6843;DHT22;3460;52.028;8.916;2023-04-25T07:46:04;7.60;99.90
6843;DHT22;3460;52.028;8.916;2023-04-25T07:48:31;7.70;99.90
6843;DHT22;3460;52.028;8.916;2023-04-25T07:50:58;7.80;99.90
6843;DHT22;3460;52.028;8.916;2023-04-25T07:53:25;7.90;99.90
6843;DHT22;3460;52.028;8.916;2023-04-25T07:55:52;8.00;99.90
6843;DHT22;3460;52.028;8.916;2023-04-25T07:58:20;8.00;99.90
6843;DHT22;3460;52.028;8.916;2023-04-25T08:00:47;8.00;99.90
6843;DHT22;3460;52.028;8.916;2023-04-25T08:03:14;8.00;99.90
6843;DHT22;3460;52.028;8.916;2023-04-25T08:05:41;8.10;99.90
6843;DHT22;3460;52.028;8.916;2023-04-25T08:08:08;8.10;99.90
6843;DHT22;3460;52.028;8.916;2023-04-25T08:10:35;8.20;99.90
6843;DHT22;3460;52.028;8.916;2023-04-25T08:13:01;8.30;99.90
6843;DHT22;3460;52.028;8.916;2023-04-25T08:15:30;8.30;99.90
6843;DHT22;3460;52.028;8.916;2023-04-25T08:17:57;8.30;99.90
6843;DHT22;3460;52.028;8.916;2023-04-25T08:20:24;8.20;99.90
6843;DHT22;3460;52.028;8.916;2023-04-25T08:22:51;8.20;99.90
6843;DHT22;3460;52.028;8.916;2023-04-25T08:25:18;8.20;99.90
6843;DHT22;3460;52.028;8.916;2023-04-25T08:27:45;8.20;99.90
6843;DHT22;3460;52.028;8.916;2023-04-25T08:30:12;8.50;99.90
6843;DHT22;3460;52.028;8.916;2023-04-25T08:32:41;8.60;99.90
6843;DHT22;3460;52.028;8.916;2023-04-25T08:35:08;8.70;99.90
6843;DHT22;3460;52.028;8.916;2023-04-25T08:37:35;8.80;99.90
6843;DHT22;3460;52.028;8.916;2023-04-25T08:40:04;8.90;99.90
6843;DHT22;3460;52.028;8.916;2023-04-25T08:42:33;9.10;99.90
6843;DHT22;3460;52.028;8.916;2023-04-25T08:45:01;9.30;99.90
6843;DHT22;3460;52.028;8.916;2023-04-25T08:47:30;9.60;99.90
6843;DHT22;3460;52.028;8.916;2023-04-25T08:50:02;9.60;99.90
6843;DHT22;3460;52.028;8.916;2023-04-25T08:52:35;9.30;99.90
6843;DHT22;3460;52.028;8.916;2023-04-25T08:55:02;9.20;99.90
6843;DHT22;3460;52.028;8.916;2023-04-25T08:57:31;9.10;99.90
6843;DHT22;3460;52.028;8.916;2023-04-25T09:00:00;9.00;99.90
6843;DHT22;3460;52.028;8.916;2023-04-25T09:02:29;8.90;99.90
6843;DHT22;3460;52.028;8.916;2023-04-25T09:04:56;8.80;99.90
6843;DHT22;3460;52.028;8.916;2023-04-25T09:07:24;8.70;99.90
6843;DHT22;3460;52.028;8.916;2023-04-25T09:09:51;8.50;99.90
6843;DHT22;3460;52.028;8.916;2023-04-25T09:12:18;8.40;99.90
6843;DHT22;3460;52.028;8.916;2023-04-25T09:15:01;8.20;99.90
6843;DHT22;3460;52.028;8.916;2023-04-25T09:17:29;8.20;99.90
6843;DHT22;3460;52.028;8.916;2023-04-25T09:20:05;8.10;99.90
6843;DHT22;3460;52.028;8.916;2023-04-25T09:22:34;8.10;99.90
6843;DHT22;3460;52.028;8.916;2023-04-25T09:25:03;8.20;99.90
6843;DHT22;3460;52.028;8.916;2023-04-25T09:27:30;8.20;99.90
6843;DHT22;3460;52.028;8.916;2023-04-25T09:29:58;8.30;99.90
6843;DHT22;3460;52.028;8.916;2023-04-25T09:32:26;8.50;99.90
6843;DHT22;3460;52.028;8.916;2023-04-25T09:34:54;8.50;99.90
6843;DHT22;3460;52.028;8.916;2023-04-25T09:37:22;8.50;99.90
6843;DHT22;3460;52.028;8.916;2023-04-25T09:39:53;8.60;99.90
6843;DHT22;3460;52.028;8.916;2023-04-25T09:42:22;8.50;99.90
6843;DHT22;3460;52.028;8.916;2023-04-25T09:44:52;8.50;99.90
6843;DHT22;3460;52.028;8.916;2023-04-25T09:47:19;8.30;99.90
6843;DHT22;3460;52.028;8.916;2023-04-25T09:49:48;8.20;99.90
6843;DHT22;3460;52.028;8.916;2023-04-25T09:52:17;8.10;99.90
6843;DHT22;3460;52.028;8.916;2023-04-25T09:54:44;8.00;99.90
6843;DHT22;3460;52.028;8.916;2023-04-25T09:57:14;8.10;99.90
6843;DHT22;3460;52.028;8.916;2023-04-25T09:59:46;8.20;99.90
6843;DHT22;3460;52.028;8.916;2023-04-25T10:02:14;8.20;99.90
6843;DHT22;3460;52.028;8.916;2023-04-25T10:04:42;8.20;99.90
6843;DHT22;3460;52.028;8.916;2023-04-25T10:07:11;8.20;99.90
6843;DHT22;3460;52.028;8.916;2023-04-25T10:09:39;8.10;99.90
6843;DHT22;3460;52.028;8.916;2023-04-25T10:12:06;8.10;99.90
6843;DHT22;3460;52.028;8.916;2023-04-25T10:14:35;7.90;99.90
6843;DHT22;3460;52.028;8.916;2023-04-25T10:17:02;7.70;99.90
6843;DHT22;3460;52.028;8.916;2023-04-25T10:19:30;7.70;99.90
6843;DHT22;3460;52.028;8.916;2023-04-25T10:22:04;7.70;99.90
6843;DHT22;3460;52.028;8.916;2023-04-25T10:24:32;7.70;99.90
6843;DHT22;3460;52.028;8.916;2023-04-25T10:27:00;7.80;99.90
6843;DHT22;3460;52.028;8.916;2023-04-25T10:29:27;7.90;99.90
6843;DHT22;3460;52.028;8.916;2023-04-25T10:31:55;8.00;99.90
6843;DHT22;3460;52.028;8.916;2023-04-25T10:34:38;8.20;99.90
6843;DHT22;3460;52.028;8.916;2023-04-25T10:37:05;8.70;99.90
6843;DHT22;3460;52.028;8.916;2023-04-25T10:39:34;8.90;99.90
6843;DHT22;3460;52.028;8.916;2023-04-25T10:42:02;9.10;99.90
6843;DHT22;3460;52.028;8.916;2023-04-25T10:44:30;9.10;99.90
6843;DHT22;3460;52.028;8.916;2023-04-25T10:46:59;9.10;99.90
6843;DHT22;3460;52.028;8.916;2023-04-25T10:49:31;9.10;99.90
6843;DHT22;3460;52.028;8.916;2023-04-25T10:52:15;9.10;99.90
6843;DHT22;3460;52.028;8.916;2023-04-25T10:54:46;9.10;99.90
6843;DHT22;3460;52.028;8.916;2023-04-25T10:57:28;9.30;99.90
6843;DHT22;3460;52.028;8.916;2023-04-25T10:59:58;9.30;99.90
6843;DHT22;3460;52.028;8.916;2023-04-25T11:02:28;9.30;99.90
6843;DHT22;3460;52.028;8.916;2023-04-25T11:04:55;9.40;99.90
6843;DHT22;3460;52.028;8.916;2023-04-25T11:07:28;9.50;99.90
6843;DHT22;3460;52.028;8.916;2023-04-25T11:10:02;9.60;99.90
6843;DHT22;3460;52.028;8.916;2023-04-25T11:12:30;9.70;99.90
6843;DHT22;3460;52.028;8.916;2023-04-25T11:15:01;9.90;99.90
6843;DHT22;3460;52.028;8.916;2023-04-25T11:17:29;10.00;99.90
6843;DHT22;3460;52.028;8.916;2023-04-25T11:19:56;9.90;99.90
6843;DHT22;3460;52.028;8.916;2023-04-25T11:22:23;9.90;99.90
6843;DHT22;3460;52.028;8.916;2023-04-25T11:24:50;9.80;99.90
6843;DHT22;3460;52.028;8.916;2023-04-25T11:27:17;9.50;99.90
6843;DHT22;3460;52.028;8.916;2023-04-25T11:29:44;9.40;99.90
6843;DHT22;3460;52.028;8.916;2023-04-25T11:32:14;9.20;99.90
6843;DHT22;3460;52.028;8.916;2023-04-25T11:34:43;9.00;99.90
6843;DHT22;3460;52.028;8.916;2023-04-25T11:37:11;8.80;99.90
6843;DHT22;3460;52.028;8.916;2023-04-25T11:39:42;8.60;99.90
6843;DHT22;3460;52.028;8.916;2023-04-25T11:42:10;8.50;99.90
6843;DHT22;3460;52.028;8.916;2023-04-25T11:44:38;8.30;99.90
6843;DHT22;3460;52.028;8.916;2023-04-25T11:47:05;8.30;99.90
6843;DHT22;3460;52.028;8.916;2023-04-25T11:49:32;8.30;99.90
6843;DHT22;3460;52.028;8.916;2023-04-25T11:52:01;8.40;99.90
6843;DHT22;3460;52.028;8.916;2023-04-25T11:54:28;8.50;99.90
6843;DHT22;3460;52.028;8.916;2023-04-25T11:56:55;8.70;99.90
6843;DHT22;3460;52.028;8.916;2023-04-25T11:59:24;8.80;99.90
6843;DHT22;3460;52.028;8.916;2023-04-25T12:01:51;8.90;99.90
6843;DHT22;3460;52.028;8.916;2023-04-25T12:04:20;9.20;99.90
6843;DHT22;3460;52.028;8.916;2023-04-25T12:06:48;9.40;99.90
6843;DHT22;3460;52.028;8.916;2023-04-25T12:09:18;9.60;99.90
6843;DHT22;3460;52.028;8.916;2023-04-25T12:11:47;9.80;99.90
6843;DHT22;3460;52.028;8.916;2023-04-25T12:14:21;9.60;99.90
6843;DHT22;3460;52.028;8.916;2023-04-25T12:16:50;9.70;99.90
6843;DHT22;3460;52.028;8.916;2023-04-25T12:19:18;9.70;99.90
6843;DHT22;3460;52.028;8.916;2023-04-25T12:21:46;9.60;99.90
6843;DHT22;3460;52.028;8.916;2023-04-25T12:24:15;9.60;99.90
6843;DHT22;3460;52.028;8.916;2023-04-25T12:26:50;9.60;99.90
6843;DHT22;3460;52.028;8.916;2023-04-25T12:29:22;9.50;99.90
6843;DHT22;3460;52.028;8.916;2023-04-25T12:31:51;9.50;99.90
6843;DHT22;3460;52.028;8.916;2023-04-25T12:34:18;9.50;99.90
6843;DHT22;3460;52.028;8.916;2023-04-25T12:36:45;9.50;99.90
6843;DHT22;3460;52.028;8.916;2023-04-25T12:39:15;9.60;99.90
6843;DHT22;3460;52.028;8.916;2023-04-25T12:41:42;9.60;99.90
6843;DHT22;3460;52.028;8.916;2023-04-25T12:44:10;9.70;99.90
6843;DHT22;3460;52.028;8.916;2023-04-25T12:46:37;9.80;99.90
6843;DHT22;3460;52.028;8.916;2023-04-25T12:49:05;9.90;99.90
6843;DHT22;3460;52.028;8.916;2023-04-25T12:51:32;10.30;99.90
6843;DHT22;3460;52.028;8.916;2023-04-25T12:53:59;10.40;99.90
6843;DHT22;3460;52.028;8.916;2023-04-25T12:56:26;10.40;99.90
6843;DHT22;3460;52.028;8.916;2023-04-25T12:58:53;10.60;99.90
6843;DHT22;3460;52.028;8.916;2023-04-25T13:01:22;10.90;99.90
6843;DHT22;3460;52.028;8.916;2023-04-25T13:03:49;11.00;99.90
6843;DHT22;3460;52.028;8.916;2023-04-25T13:06:16;10.70;99.90
6843;DHT22;3460;52.028;8.916;2023-04-25T13:08:44;10.70;99.90
6843;DHT22;3460;52.028;8.916;2023-04-25T13:11:11;10.60;99.90
6843;DHT22;3460;52.028;8.916;2023-04-25T13:13:38;10.60;99.90
6843;DHT22;3460;52.028;8.916;2023-04-25T13:16:06;10.70;99.90
6843;DHT22;3460;52.028;8.916;2023-04-25T13:18:36;10.60;99.90
6843;DHT22;3460;52.028;8.916;2023-04-25T13:21:03;10.50;99.90
6843;DHT22;3460;52.028;8.916;2023-04-25T13:23:30;10.40;99.90
6843;DHT22;3460;52.028;8.916;2023-04-25T13:25:57;10.40;99.90
6843;DHT22;3460;52.028;8.916;2023-04-25T13:28:24;10.30;99.90
6843;DHT22;3460;52.028;8.916;2023-04-25T13:30:51;10.40;99.90
6843;DHT22;3460;52.028;8.916;2023-04-25T13:33:18;10.40;99.90
6843;DHT22;3460;52.028;8.916;2023-04-25T13:35:48;10.40;99.90
6843;DHT22;3460;52.028;8.916;2023-04-25T13:38:20;10.30;99.90
6843;DHT22;3460;52.028;8.916;2023-04-25T13:40:47;10.20;99.90
6843;DHT22;3460;52.028;8.916;2023-04-25T13:43:13;10.00;99.90
6843;DHT22;3460;52.028;8.916;2023-04-25T13:45:40;9.70;99.90
6843;DHT22;3460;52.028;8.916;2023-04-25T13:48:07;9.50;99.90
6843;DHT22;3460;52.028;8.916;2023-04-25T13:50:34;9.10;99.90
6843;DHT22;3460;52.028;8.916;2023-04-25T13:53:02;8.90;99.90
6843;DHT22;3460;52.028;8.916;2023-04-25T13:55:29;8.80;99.90
6843;DHT22;3460;52.028;8.916;2023-04-25T13:57:56;8.70;99.90
6843;DHT22;3460;52.028;8.916;2023-04-25T14:00:23;8.70;99.90
6843;DHT22;3460;52.028;8.916;2023-04-25T14:02:50;8.60;99.90
6843;DHT22;3460;52.028;8.916;2023-04-25T14:05:17;8.50;99.90
6843;DHT22;3460;52.028;8.916;2023-04-25T14:07:44;8.50;99.90
6843;DHT22;3460;52.028;8.916;2023-04-25T14:10:12;8.40;99.90
6843;DHT22;3460;52.028;8.916;2023-04-25T14:12:39;8.40;99.90
6843;DHT22;3460;52.028;8.916;2023-04-25T14:15:06;8.30;99.90
6843;DHT22;3460;52.028;8.916;2023-04-25T14:17:33;8.30;99.90
6843;DHT22;3460;52.028;8.916;2023-04-25T14:20:00;8.40;99.90
6843;DHT22;3460;52.028;8.916;2023-04-25T14:22:27;8.40;99.90
6843;DHT22;3460;52.028;8.916;2023-04-25T14:24:54;8.40;99.90
6843;DHT22;3460;52.028;8.916;2023-04-25T14:27:22;8.50;99.90
6843;DHT22;3460;52.028;8.916;2023-04-25T14:29:49;8.50;99.90
6843;DHT22;3460;52.028;8.916;2023-04-25T14:32:15;8.70;99.90
6843;DHT22;3460;52.028;8.916;2023-04-25T14:34:42;9.00;99.90
6843;DHT22;3460;52.028;8.916;2023-04-25T14:37:09;9.30;99.90
6843;DHT22;3460;52.028;8.916;2023-04-25T14:39:36;9.40;99.90
6843;DHT22;3460;52.028;8.916;2023-04-25T14:42:03;9.50;99.90
6843;DHT22;3460;52.028;8.916;2023-04-25T14:44:31;9.70;99.90
6843;DHT22;3460;52.028;8.916;2023-04-25T14:46:58;9.70;99.90
6843;DHT22;3460;52.028;8.916;2023-04-25T14:49:25;9.60;99.90
6843;DHT22;3460;52.028;8.916;2023-04-25T14:51:53;9.60;99.90
6843;DHT22;3460;52.028;8.916;2023-04-25T14:54:20;9.60;99.90
6843;DHT22;3460;52.028;8.916;2023-04-25T14:56:47;9.60;99.90
6843;DHT22;3460;52.028;8.916;2023-04-25T14:59:14;9.60;99.90
6843;DHT22;3460;52.028;8.916;2023-04-25T15:01:42;9.60;99.90
6843;DHT22;3460;52.028;8.916;2023-04-25T15:04:09;9.70;99.90
6843;DHT22;3460;52.028;8.916;2023-04-25T15:06:37;9.60;99.90
6843;DHT22;3460;52.028;8.916;2023-04-25T15:09:04;9.70;99.90
6843;DHT22;3460;52.028;8.916;2023-04-25T15:11:31;9.80;99.90
6843;DHT22;3460;52.028;8.916;2023-04-25T15:13:58;10.00;99.90
6843;DHT22;3460;52.028;8.916;2023-04-25T15:16:25;10.30;99.90
6843;DHT22;3460;52.028;8.916;2023-04-25T15:18:53;10.60;99.90
6843;DHT22;3460;52.028;8.916;2023-04-25T15:21:20;10.80;99.90
6843;DHT22;3460;52.028;8.916;2023-04-25T15:23:47;11.00;99.90
6843;DHT22;3460;52.028;8.916;2023-04-25T15:26:14;11.20;99.90
6843;DHT22;3460;52.028;8.916;2023-04-25T15:28:41;11.20;99.90
6843;DHT22;3460;52.028;8.916;2023-04-25T15:31:08;11.10;99.90
6843;DHT22;3460;52.028;8.916;2023-04-25T15:33:35;10.90;99.90
6843;DHT22;3460;52.028;8.916;2023-04-25T15:36:03;10.60;99.90
6843;DHT22;3460;52.028;8.916;2023-04-25T15:38:30;10.40;99.90
6843;DHT22;3460;52.028;8.916;2023-04-25T15:40:57;10.10;99.90
6843;DHT22;3460;52.028;8.916;2023-04-25T15:43:24;9.50;99.90
6843;DHT22;3460;52.028;8.916;2023-04-25T15:45:51;9.10;99.90
6843;DHT22;3460;52.028;8.916;2023-04-25T15:48:18;9.00;99.90
6843;DHT22;3460;52.028;8.916;2023-04-25T15:50:44;9.00;99.90
6843;DHT22;3460;52.028;8.916;2023-04-25T15:53:13;8.90;99.90
6843;DHT22;3460;52.028;8.916;2023-04-25T15:55:40;8.80;99.90
6843;DHT22;3460;52.028;8.916;2023-04-25T15:58:09;8.70;99.90
6843;DHT22;3460;52.028;8.916;2023-04-25T16:00:36;8.70;99.90
6843;DHT22;3460;52.028;8.916;2023-04-25T16:03:04;8.80;99.90
6843;DHT22;3460;52.028;8.916;2023-04-25T16:05:32;8.90;99.90
6843;DHT22;3460;52.028;8.916;2023-04-25T16:07:58;9.00;99.90
6843;DHT22;3460;52.028;8.916;2023-04-25T16:10:26;9.30;99.90
6843;DHT22;3460;52.028;8.916;2023-04-25T16:12:53;9.50;99.90
6843;DHT22;3460;52.028;8.916;2023-04-25T16:15:20;9.60;99.90
6843;DHT22;3460;52.028;8.916;2023-04-25T16:17:47;9.70;99.90
6843;DHT22;3460;52.028;8.916;2023-04-25T16:20:14;9.80;99.90